5Z7 weather

Kasitsna Airport
Kasitsna Bay, Alaska, United States

Public forecast

Using degrees Fahrenheit for public forecast. Weather courtesy of forecast.io.

Closest aviation weather report (METAR) to Kasitsna Airport

Closest report is Seldovia Airport, 4.3 nm (8.0 km) WSW. Retrieved 2020/08/06 00:53 UTC (7 minutes ago):

PASO 060053Z AUTO 19005KT CLR 20/11 A2964 RMK AO2 SLP036 T02000111 TSNO

Closest aviation forecast (TAF) to Kasitsna Airport

Closest forecast is Homer Airport, 11.0 nm (20.4 km) NNE. Retrieved 2020-08-06 00:30 UTC (30 minutes ago):

TAF PAHO 052327Z 0600/0624 25011KT P6SM SCT100 BKN250 FM060600 13009KT P6SM VCSH BKN050 OVC080 FM061700 12009G18KT 4SM -RA BKN025